QFA450 YSSY-YBBN
Flight info
| Callsign | QFA450 |
|---|---|
| Flight time | N/A |
| Altitude | 37000 |
| Route | TESAT H252 OLSEM Y193 BANDA H252 BN |
| Aircraft | B738/M-SDE2E3FGHIRWXY/LB1 |
Departure
| Time | 2026-04-30 10:05 |
|---|---|
| Airport | Sydney Kingsford Smith International Airport (YSSY) |
Arrival
| Time | N/A |
|---|---|
| Airport | Brisbane International Airport (YBBN) |
| Time | Latitude | Longitude | Altitude | Speed | Heading |
|---|---|---|---|---|---|
| 2026-04-30 09:33 | -33.93599 | 151.17987 | 19 ft | 0 kts | 278° |
| 2026-04-30 09:51 | -33.93601 | 151.18004 | 19 ft | 2 kts | 278° |
| 2026-04-30 09:51 | -33.93603 | 151.18021 | 20 ft | 1 kts | 278° |
| 2026-04-30 09:51 | -33.93604 | 151.18031 | 20 ft | 2 kts | 259° |
| 2026-04-30 09:52 | -33.93598 | 151.18048 | 20 ft | 2 kts | 226° |
| 2026-04-30 09:52 | -33.93586 | 151.18057 | 21 ft | 1 kts | 194° |
| 2026-04-30 09:52 | -33.93580 | 151.18059 | 21 ft | 1 kts | 186° |
| 2026-04-30 09:52 | -33.93578 | 151.18059 | 21 ft | 0 kts | 187° |
| 2026-04-30 09:55 | -33.93584 | 151.18057 | 21 ft | 4 kts | 187° |
| 2026-04-30 09:55 | -33.93674 | 151.18057 | 19 ft | 17 kts | 171° |
| 2026-04-30 09:55 | -33.93778 | 151.18051 | 17 ft | 16 kts | 240° |
| 2026-04-30 09:56 | -33.93812 | 151.17905 | 11 ft | 18 kts | 255° |
| 2026-04-30 09:56 | -33.93850 | 151.17786 | 9 ft | 13 kts | 216° |
| 2026-04-30 09:56 | -33.93937 | 151.17789 | 10 ft | 12 kts | 168° |
| 2026-04-30 09:56 | -33.94034 | 151.17815 | 11 ft | 17 kts | 169° |
| 2026-04-30 09:57 | -33.94163 | 151.17847 | 15 ft | 19 kts | 168° |
| 2026-04-30 09:57 | -33.94289 | 151.17880 | 20 ft | 17 kts | 168° |
| 2026-04-30 09:57 | -33.94405 | 151.17911 | 24 ft | 17 kts | 169° |
| 2026-04-30 09:57 | -33.94514 | 151.17883 | 24 ft | 16 kts | 176° |
| 2026-04-30 09:58 | -33.94628 | 151.17911 | 25 ft | 18 kts | 168° |
| 2026-04-30 09:58 | -33.94759 | 151.17944 | 27 ft | 19 kts | 168° |
| 2026-04-30 09:58 | -33.94888 | 151.17978 | 26 ft | 19 kts | 168° |
| 2026-04-30 09:58 | -33.95021 | 151.18013 | 24 ft | 18 kts | 168° |
| 2026-04-30 09:59 | -33.95081 | 151.18228 | 19 ft | 16 kts | 78° |
| 2026-04-30 09:59 | -33.95049 | 151.18402 | 18 ft | 0 kts | 77° |
| 2026-04-30 10:00 | -33.95048 | 151.18468 | 17 ft | 15 kts | 108° |
| 2026-04-30 10:00 | -33.95130 | 151.18559 | 15 ft | 17 kts | 136° |
| 2026-04-30 10:01 | -33.95343 | 151.18727 | 12 ft | 20 kts | 166° |
| 2026-04-30 10:01 | -33.95490 | 151.18770 | 10 ft | 23 kts | 165° |
| 2026-04-30 10:01 | -33.95658 | 151.18810 | 9 ft | 26 kts | 168° |
| 2026-04-30 10:02 | -33.96024 | 151.18904 | 8 ft | 26 kts | 167° |
| 2026-04-30 10:02 | -33.96204 | 151.18951 | 8 ft | 26 kts | 169° |
| 2026-04-30 10:02 | -33.96382 | 151.18999 | 9 ft | 25 kts | 168° |
| 2026-04-30 10:02 | -33.96553 | 151.19043 | 10 ft | 24 kts | 167° |
| 2026-04-30 10:03 | -33.96709 | 151.19078 | 12 ft | 20 kts | 179° |
| 2026-04-30 10:03 | -33.96852 | 151.19076 | 12 ft | 20 kts | 167° |
| 2026-04-30 10:03 | -33.96989 | 151.19112 | 11 ft | 20 kts | 167° |
| 2026-04-30 10:03 | -33.97115 | 151.19154 | 12 ft | 16 kts | 137° |
| 2026-04-30 10:04 | -33.97120 | 151.19276 | 12 ft | 15 kts | 78° |
| 2026-04-30 10:04 | -33.97097 | 151.19376 | 12 ft | 8 kts | 42° |
| 2026-04-30 10:04 | -33.97039 | 151.19373 | 12 ft | 6 kts | 348° |
| 2026-04-30 10:04 | -33.97018 | 151.19368 | 12 ft | 18 kts | 348° |
| 2026-04-30 10:05 | -33.96644 | 151.19269 | 12 ft | 90 kts | 348° |
| 2026-04-30 10:05 | -33.95824 | 151.19055 | 10 ft | 149 kts | 348° |
| 2026-04-30 10:05 | -33.94780 | 151.18771 | 535 ft | 153 kts | 351° |
| 2026-04-30 10:05 | -33.93713 | 151.18556 | 1150 ft | 158 kts | 1° |
| 2026-04-30 10:06 | -33.92646 | 151.18790 | 1668 ft | 164 kts | 37° |
| 2026-04-30 10:06 | -33.91857 | 151.19815 | 2207 ft | 173 kts | 50° |
| 2026-04-30 10:06 | -33.90968 | 151.20850 | 2668 ft | 189 kts | 39° |
| 2026-04-30 10:06 | -33.89845 | 151.21838 | 3142 ft | 207 kts | 36° |
| 2026-04-30 10:07 | -33.88650 | 151.22855 | 3672 ft | 221 kts | 36° |
| 2026-04-30 10:07 | -33.87363 | 151.23964 | 4185 ft | 236 kts | 37° |
| 2026-04-30 10:07 | -33.85987 | 151.25160 | 4716 ft | 250 kts | 37° |
| 2026-04-30 10:07 | -33.84555 | 151.26411 | 5347 ft | 259 kts | 37° |
| 2026-04-30 10:08 | -33.83286 | 151.27937 | 6040 ft | 264 kts | 59° |
| 2026-04-30 10:08 | -33.82606 | 151.30013 | 6821 ft | 268 kts | 75° |
| 2026-04-30 10:08 | -33.82162 | 151.32191 | 7584 ft | 272 kts | 76° |
| 2026-04-30 10:08 | -33.81696 | 151.34399 | 8355 ft | 276 kts | 74° |
| 2026-04-30 10:09 | -33.81034 | 151.36560 | 9125 ft | 280 kts | 62° |
| 2026-04-30 10:09 | -33.79931 | 151.38487 | 9892 ft | 284 kts | 51° |
| 2026-04-30 10:09 | -33.78628 | 151.40277 | 10683 ft | 288 kts | 48° |
| 2026-04-30 10:09 | -33.77282 | 151.42090 | 11202 ft | 302 kts | 49° |
| 2026-04-30 10:10 | -33.75869 | 151.44066 | 11688 ft | 318 kts | 50° |
| 2026-04-30 10:10 | -33.74424 | 151.46162 | 12193 ft | 333 kts | 51° |
| 2026-04-30 10:10 | -33.72935 | 151.48360 | 12722 ft | 345 kts | 51° |
| 2026-04-30 10:10 | -33.71438 | 151.50586 | 13454 ft | 350 kts | 51° |
| 2026-04-30 10:11 | -33.69891 | 151.52889 | 14234 ft | 356 kts | 51° |
| 2026-04-30 10:11 | -33.68335 | 151.55200 | 15025 ft | 360 kts | 51° |
| 2026-04-30 10:11 | -33.66745 | 151.57542 | 15830 ft | 364 kts | 51° |
| 2026-04-30 10:11 | -33.65080 | 151.59788 | 16592 ft | 369 kts | 46° |
| 2026-04-30 10:12 | -33.63136 | 151.61848 | 17332 ft | 374 kts | 39° |
| 2026-04-30 10:12 | -33.61033 | 151.63680 | 18100 ft | 378 kts | 36° |
| 2026-04-30 10:12 | -33.58804 | 151.65434 | 18811 ft | 383 kts | 33° |
| 2026-04-30 10:12 | -33.56569 | 151.67129 | 19498 ft | 388 kts | 33° |
| 2026-04-30 10:13 | -33.54269 | 151.68869 | 20171 ft | 393 kts | 33° |
| 2026-04-30 10:13 | -33.51940 | 151.70596 | 20812 ft | 398 kts | 31° |
| 2026-04-30 10:13 | -33.49445 | 151.72115 | 21466 ft | 403 kts | 25° |
| 2026-04-30 10:13 | -33.46822 | 151.73349 | 22065 ft | 408 kts | 20° |
| 2026-04-30 10:14 | -33.44115 | 151.74387 | 22710 ft | 412 kts | 18° |
| 2026-04-30 10:14 | -33.41328 | 151.75334 | 23291 ft | 417 kts | 17° |
| 2026-04-30 10:14 | -33.35662 | 151.77133 | 24500 ft | 425 kts | 15° |
| 2026-04-30 10:15 | -33.32821 | 151.78023 | 25058 ft | 429 kts | 15° |
| 2026-04-30 10:15 | -33.29890 | 151.78944 | 25634 ft | 433 kts | 15° |
| 2026-04-30 10:15 | -33.26995 | 151.79862 | 26157 ft | 437 kts | 15° |
| 2026-04-30 10:15 | -33.24046 | 151.80800 | 26733 ft | 440 kts | 15° |
| 2026-04-30 10:16 | -33.21066 | 151.81752 | 27249 ft | 444 kts | 15° |
| 2026-04-30 10:16 | -33.18090 | 151.82707 | 27747 ft | 448 kts | 15° |
| 2026-04-30 10:16 | -33.15062 | 151.83679 | 28243 ft | 451 kts | 15° |
| 2026-04-30 10:17 | -33.08984 | 151.85629 | 29282 ft | 456 kts | 15° |
| 2026-04-30 10:17 | -33.02784 | 151.87617 | 30210 ft | 463 kts | 15° |
| 2026-04-30 10:17 | -32.99680 | 151.88612 | 30635 ft | 466 kts | 15° |
| 2026-04-30 10:18 | -32.96555 | 151.89613 | 31259 ft | 463 kts | 15° |
| 2026-04-30 10:18 | -32.93458 | 151.90605 | 31878 ft | 461 kts | 15° |
| 2026-04-30 10:18 | -32.90354 | 151.91599 | 32391 ft | 460 kts | 14° |
| 2026-04-30 10:19 | -32.84193 | 151.93568 | 33414 ft | 458 kts | 14° |
| 2026-04-30 10:19 | -32.81093 | 151.94557 | 33906 ft | 457 kts | 14° |
| 2026-04-30 10:19 | -32.78038 | 151.95532 | 34262 ft | 457 kts | 14° |
| 2026-04-30 10:19 | -32.74961 | 151.96513 | 34623 ft | 456 kts | 14° |
| 2026-04-30 10:20 | -32.71901 | 151.97487 | 34964 ft | 456 kts | 13° |
| 2026-04-30 10:20 | -32.65772 | 151.99440 | 35678 ft | 454 kts | 13° |
| 2026-04-30 10:20 | -32.62723 | 152.00409 | 36037 ft | 454 kts | 13° |
| 2026-04-30 10:21 | -32.59638 | 152.01390 | 36405 ft | 454 kts | 13° |
| 2026-04-30 10:21 | -32.56580 | 152.02361 | 36748 ft | 454 kts | 13° |
| 2026-04-30 10:21 | -32.53561 | 152.03319 | 37030 ft | 454 kts | 13° |
| 2026-04-30 10:21 | -32.50501 | 152.04289 | 37281 ft | 455 kts | 13° |
| 2026-04-30 10:22 | -32.47419 | 152.05266 | 37402 ft | 458 kts | 13° |
| 2026-04-30 10:22 | -32.44336 | 152.06242 | 37407 ft | 458 kts | 13° |
| 2026-04-30 10:22 | -32.38213 | 152.08179 | 37410 ft | 454 kts | 13° |
| 2026-04-30 10:23 | -32.32108 | 152.10106 | 37413 ft | 456 kts | 13° |
| 2026-04-30 10:23 | -32.25989 | 152.12035 | 37409 ft | 454 kts | 12° |
| 2026-04-30 10:24 | -32.19892 | 152.13954 | 37410 ft | 454 kts | 12° |
| 2026-04-30 10:24 | -32.13778 | 152.15877 | 37409 ft | 455 kts | 12° |
| 2026-04-30 10:25 | -32.07642 | 152.17806 | 37408 ft | 456 kts | 12° |
| 2026-04-30 10:25 | -32.01496 | 152.19734 | 37409 ft | 455 kts | 12° |
| 2026-04-30 10:26 | -31.95369 | 152.21654 | 37411 ft | 455 kts | 12° |
| 2026-04-30 10:26 | -31.89284 | 152.23557 | 37402 ft | 455 kts | 12° |
| 2026-04-30 10:27 | -31.83144 | 152.25476 | 37398 ft | 454 kts | 12° |
| 2026-04-30 10:27 | -31.77048 | 152.27379 | 37403 ft | 455 kts | 12° |
| 2026-04-30 10:28 | -31.70914 | 152.29291 | 37411 ft | 456 kts | 12° |
| 2026-04-30 10:28 | -31.64820 | 152.31187 | 37410 ft | 455 kts | 12° |
| 2026-04-30 10:29 | -31.58712 | 152.33084 | 37408 ft | 454 kts | 12° |
| 2026-04-30 10:29 | -31.52594 | 152.34981 | 37408 ft | 454 kts | 12° |
| 2026-04-30 10:30 | -31.46505 | 152.36867 | 37411 ft | 453 kts | 12° |
| 2026-04-30 10:30 | -31.40411 | 152.38751 | 37409 ft | 453 kts | 12° |
| 2026-04-30 10:31 | -31.34305 | 152.40639 | 37406 ft | 453 kts | 12° |
| 2026-04-30 10:31 | -31.28210 | 152.42520 | 37402 ft | 453 kts | 12° |
| 2026-04-30 10:32 | -31.22093 | 152.44405 | 37398 ft | 453 kts | 12° |
| 2026-04-30 10:32 | -31.16017 | 152.46277 | 37397 ft | 452 kts | 12° |
| 2026-04-30 10:33 | -31.09942 | 152.48146 | 37396 ft | 452 kts | 12° |
| 2026-04-30 10:33 | -31.03829 | 152.50023 | 37398 ft | 453 kts | 12° |
| 2026-04-30 10:34 | -30.97732 | 152.51892 | 37404 ft | 454 kts | 12° |
| 2026-04-30 10:34 | -30.91627 | 152.53760 | 37396 ft | 453 kts | 12° |